createdAt,value
2018-03-15T00:00:51.237Z,4.70
2018-03-15T00:03:23.861Z,4.30
2018-03-15T00:05:50.197Z,4.20
2018-03-15T00:08:16.488Z,4.00
2018-03-15T00:10:43.568Z,3.60
2018-03-15T00:13:09.878Z,3.60
2018-03-15T00:15:36.914Z,3.80
2018-03-15T00:18:03.254Z,3.80
2018-03-15T00:20:30.344Z,4.00
2018-03-15T00:22:56.646Z,4.00
2018-03-15T00:25:23.672Z,3.90
2018-03-15T00:27:50.894Z,4.00
2018-03-15T00:30:17.260Z,3.90
2018-03-15T00:32:43.585Z,4.00
2018-03-15T00:35:09.905Z,4.00
2018-03-15T00:37:36.229Z,4.10
2018-03-15T00:40:02.669Z,4.20
2018-03-15T00:42:28.963Z,4.20
2018-03-15T00:44:55.265Z,4.20
2018-03-15T00:47:21.587Z,4.10
2018-03-15T00:49:47.923Z,4.00
2018-03-15T00:52:14.220Z,4.10
2018-03-15T00:54:40.551Z,4.20
2018-03-15T00:57:06.842Z,4.30
2018-03-15T00:59:33.172Z,4.40
2018-03-15T01:02:00.018Z,4.10
2018-03-15T01:04:26.378Z,4.20
2018-03-15T01:06:52.657Z,4.30
2018-03-15T01:09:19.704Z,4.40
2018-03-15T01:11:46.018Z,4.40
2018-03-15T01:14:12.404Z,4.30
2018-03-15T01:16:38.727Z,4.30
2018-03-15T01:19:05.040Z,4.40
2018-03-15T01:21:31.374Z,4.40
2018-03-15T01:23:57.751Z,4.40
2018-03-15T01:26:24.053Z,4.20
2018-03-15T01:28:50.370Z,4.20
2018-03-15T01:31:16.645Z,4.10
2018-03-15T01:33:42.975Z,4.10
2018-03-15T01:36:09.334Z,4.20
2018-03-15T01:38:36.387Z,3.90
2018-03-15T01:41:03.415Z,3.70
2018-03-15T01:43:29.758Z,3.70
2018-03-15T01:45:56.792Z,3.50
2018-03-15T01:48:23.084Z,3.50
2018-03-15T01:50:49.453Z,3.50
2018-03-15T01:53:15.738Z,3.40
2018-03-15T01:55:42.019Z,3.40
2018-03-15T01:58:08.375Z,3.30
2018-03-15T02:00:35.445Z,3.20
2018-03-15T02:03:01.836Z,3.20
2018-03-15T02:05:28.874Z,3.20
2018-03-15T02:07:55.205Z,3.20
2018-03-15T02:10:21.502Z,3.20
2018-03-15T02:12:47.837Z,3.30
2018-03-15T02:15:14.157Z,3.20
2018-03-15T02:17:40.501Z,3.10
2018-03-15T02:20:06.821Z,3.10
2018-03-15T02:22:33.119Z,2.90
2018-03-15T02:24:59.443Z,2.90
2018-03-15T02:27:26.517Z,2.90
2018-03-15T02:29:52.795Z,2.80
2018-03-15T02:32:19.099Z,2.80
2018-03-15T02:34:45.433Z,2.80
2018-03-15T02:37:11.758Z,2.80
2018-03-15T02:39:38.068Z,2.70
2018-03-15T02:42:04.415Z,2.60
2018-03-15T02:44:30.760Z,2.50
2018-03-15T02:46:57.050Z,2.40
2018-03-15T02:49:23.384Z,2.30
2018-03-15T02:51:49.725Z,2.30
2018-03-15T02:54:16.059Z,2.20
2018-03-15T02:56:42.372Z,2.20
2018-03-15T02:59:08.720Z,2.10
2018-03-15T03:01:35.078Z,2.10
2018-03-15T03:04:01.353Z,2.00
2018-03-15T03:06:28.408Z,2.00
2018-03-15T03:08:55.473Z,2.00
2018-03-15T03:11:21.835Z,2.00
2018-03-15T03:13:48.200Z,1.90
2018-03-15T03:16:14.529Z,1.90
2018-03-15T03:18:40.901Z,1.90
2018-03-15T03:21:07.192Z,1.90
2018-03-15T03:23:33.487Z,1.90
2018-03-15T03:25:59.821Z,1.80
2018-03-15T03:28:26.126Z,1.80
2018-03-15T03:30:52.451Z,1.80
2018-03-15T03:33:18.799Z,1.70
2018-03-15T03:35:45.138Z,1.70
2018-03-15T03:38:11.484Z,1.70
2018-03-15T03:40:37.840Z,1.70
2018-03-15T03:43:04.195Z,1.60
2018-03-15T03:45:31.286Z,1.50
2018-03-15T03:47:57.580Z,1.50
2018-03-15T03:50:24.628Z,1.50
2018-03-15T03:52:51.683Z,1.50
2018-03-15T03:55:18.022Z,1.40
2018-03-15T03:57:44.323Z,1.40
2018-03-15T04:00:10.642Z,1.40
2018-03-15T04:02:36.975Z,1.40
2018-03-15T04:05:03.305Z,1.40
2018-03-15T04:07:29.634Z,1.40
2018-03-15T04:09:55.993Z,1.40
2018-03-15T04:12:23.088Z,1.40
2018-03-15T04:14:49.413Z,1.40
2018-03-15T04:17:15.783Z,1.30
2018-03-15T04:19:42.183Z,1.20
2018-03-15T04:22:08.464Z,1.20
2018-03-15T04:24:35.528Z,1.20
2018-03-15T04:27:01.856Z,1.20
2018-03-15T04:29:28.154Z,1.20
2018-03-15T04:31:54.489Z,1.20
2018-03-15T04:34:20.774Z,1.10
2018-03-15T04:36:47.144Z,1.10
2018-03-15T04:39:13.506Z,1.10
2018-03-15T04:41:40.630Z,1.00
2018-03-15T04:44:07.088Z,1.00
2018-03-15T04:46:34.212Z,1.00
2018-03-15T04:49:00.607Z,1.00
2018-03-15T04:51:27.003Z,1.00
2018-03-15T04:53:54.124Z,1.00
2018-03-15T04:56:20.484Z,1.00
2018-03-15T04:58:47.574Z,0.90
2018-03-15T05:01:13.906Z,0.90
2018-03-15T05:03:40.270Z,0.90
2018-03-15T05:06:06.557Z,0.90
2018-03-15T05:08:33.749Z,0.80
2018-03-15T05:11:00.052Z,0.80
2018-03-15T05:13:26.344Z,0.90
2018-03-15T05:15:52.674Z,0.90
2018-03-15T05:18:19.078Z,0.90
2018-03-15T05:20:46.148Z,0.90
2018-03-15T05:23:13.224Z,0.80
2018-03-15T05:25:39.592Z,0.80
2018-03-15T05:28:05.882Z,0.80
2018-03-15T05:30:32.252Z,0.90
2018-03-15T05:32:58.644Z,0.90
2018-03-15T05:35:24.940Z,1.00
2018-03-15T05:37:52.021Z,1.00
2018-03-15T05:40:18.348Z,1.00
2018-03-15T05:42:44.710Z,1.10
2018-03-15T05:45:11.002Z,1.10
2018-03-15T05:47:38.089Z,1.20
2018-03-15T05:50:05.705Z,1.20
2018-03-15T05:52:33.587Z,1.30
2018-03-15T05:54:59.918Z,1.20
2018-03-15T05:57:26.298Z,1.30
2018-03-15T05:59:52.654Z,1.30
2018-03-15T06:02:19.716Z,1.40
2018-03-15T06:04:46.824Z,1.50
2018-03-15T06:07:13.127Z,1.50
2018-03-15T06:09:39.472Z,1.60
2018-03-15T06:12:05.772Z,1.60
2018-03-15T06:14:32.109Z,1.70
2018-03-15T06:16:58.447Z,1.90
2018-03-15T06:19:24.770Z,1.90
2018-03-15T06:21:51.144Z,2.00
2018-03-15T06:24:17.417Z,2.10
2018-03-15T06:26:44.436Z,2.40
2018-03-15T06:29:10.740Z,2.40
2018-03-15T06:31:37.808Z,2.70
2018-03-15T06:34:04.155Z,2.70
2018-03-15T06:36:30.479Z,2.90
2018-03-15T06:38:56.775Z,2.90
2018-03-15T06:41:23.056Z,3.00
2018-03-15T06:43:50.137Z,3.20
2018-03-15T06:46:16.434Z,3.20
2018-03-15T06:48:43.639Z,3.40
2018-03-15T06:51:09.947Z,3.40
2018-03-15T06:53:36.288Z,3.60
2018-03-15T06:56:02.618Z,3.60
2018-03-15T06:58:28.974Z,3.70
2018-03-15T07:00:55.308Z,3.70
2018-03-15T07:03:21.585Z,3.60
2018-03-15T07:05:48.629Z,4.20
2018-03-15T07:08:15.680Z,4.20
2018-03-15T07:10:42.730Z,4.30
2018-03-15T07:13:09.794Z,4.30
2018-03-15T07:15:36.087Z,4.30
2018-03-15T07:18:02.390Z,4.40
2018-03-15T07:20:28.940Z,4.60
2018-03-15T07:22:55.243Z,4.70
2018-03-15T07:25:21.523Z,4.50
2018-03-15T07:27:48.636Z,4.80
2018-03-15T07:30:14.994Z,4.80
2018-03-15T07:32:41.425Z,5.10
2018-03-15T07:35:07.744Z,4.90
2018-03-15T07:37:34.088Z,5.10
2018-03-15T07:40:00.388Z,5.40
2018-03-15T07:42:26.680Z,4.80
2018-03-15T07:44:53.116Z,4.90
2018-03-15T07:47:19.416Z,4.80
2018-03-15T07:49:45.930Z,5.00
2018-03-15T07:52:12.214Z,5.40
2018-03-15T07:54:38.517Z,5.50
2018-03-15T07:57:04.850Z,5.40
2018-03-15T07:59:31.933Z,5.60
2018-03-15T08:01:58.351Z,5.50
2018-03-15T08:04:24.710Z,5.80
2018-03-15T08:06:51.033Z,6.10
2018-03-15T08:09:17.339Z,6.20
2018-03-15T08:11:44.377Z,6.10
2018-03-15T08:14:11.472Z,6.10
2018-03-15T08:16:37.828Z,6.00
2018-03-15T08:19:04.187Z,6.20
2018-03-15T08:21:31.273Z,6.40
2018-03-15T08:23:57.608Z,6.40
2018-03-15T08:26:24.121Z,5.90
2018-03-15T08:28:50.472Z,6.20
2018-03-15T08:31:16.794Z,6.40
2018-03-15T08:33:43.200Z,6.20
2018-03-15T08:36:10.283Z,6.60
2018-03-15T08:38:36.609Z,6.60
2018-03-15T08:41:02.976Z,6.80
2018-03-15T08:43:29.258Z,6.90
2018-03-15T08:45:55.582Z,6.90
2018-03-15T08:48:22.885Z,6.80
2018-03-15T08:50:49.212Z,6.70
2018-03-15T08:53:15.613Z,6.90
2018-03-15T08:55:41.991Z,7.00
2018-03-15T08:58:08.419Z,6.90
2018-03-15T09:00:34.842Z,7.20
2018-03-15T09:03:01.133Z,7.50
2018-03-15T09:05:27.453Z,7.70
2018-03-15T09:07:53.784Z,7.80
2018-03-15T09:10:20.137Z,8.00
2018-03-15T09:12:46.500Z,8.00
2018-03-15T09:15:12.887Z,8.40
2018-03-15T09:17:40.022Z,8.80
2018-03-15T09:20:07.096Z,9.10
2018-03-15T09:22:33.428Z,9.20
2018-03-15T09:24:59.713Z,9.30
2018-03-15T09:27:26.118Z,9.00
2018-03-15T09:29:52.404Z,9.20
2018-03-15T09:32:18.743Z,9.10
2018-03-15T09:34:45.035Z,9.40
2018-03-15T09:37:11.429Z,9.50
2018-03-15T09:39:37.777Z,9.30
2018-03-15T09:42:04.129Z,9.30
2018-03-15T09:44:30.437Z,9.20
2018-03-15T09:46:56.764Z,8.90
2018-03-15T09:49:23.107Z,8.90
2018-03-15T09:51:50.163Z,9.20
2018-03-15T09:54:16.550Z,9.20
2018-03-15T09:56:43.697Z,9.40
2018-03-15T09:59:10.038Z,9.40
2018-03-15T10:01:36.419Z,9.40
2018-03-15T10:04:02.725Z,9.50
2018-03-15T10:06:29.138Z,9.30
2018-03-15T10:08:55.515Z,9.40
2018-03-15T10:11:21.919Z,9.30
2018-03-15T10:13:48.279Z,9.60
2018-03-15T10:16:14.646Z,9.90
2018-03-15T10:18:40.984Z,9.80
2018-03-15T10:21:07.374Z,9.90
2018-03-15T10:23:33.804Z,10.30
2018-03-15T10:26:00.109Z,9.90
2018-03-15T10:28:26.440Z,10.00
2018-03-15T10:30:52.746Z,10.00
2018-03-15T10:33:25.321Z,10.20
2018-03-15T10:35:51.654Z,10.70
2018-03-15T10:38:18.016Z,10.60
2018-03-15T10:40:44.339Z,10.10
2018-03-15T10:43:10.712Z,10.20
2018-03-15T10:45:37.819Z,10.50
2018-03-15T10:48:04.248Z,10.40
2018-03-15T10:50:30.620Z,11.00
2018-03-15T10:52:56.940Z,11.10
2018-03-15T10:55:23.353Z,11.00
2018-03-15T10:57:49.756Z,11.00
2018-03-15T11:00:16.148Z,11.00
2018-03-15T11:02:46.392Z,11.60
2018-03-15T11:05:19.752Z,11.60
2018-03-15T11:07:52.228Z,11.60
2018-03-15T11:10:18.674Z,11.80
2018-03-15T11:12:45.052Z,12.20
2018-03-15T11:15:11.418Z,12.40
2018-03-15T11:17:37.750Z,12.60
2018-03-15T11:20:04.120Z,12.20
2018-03-15T11:22:30.518Z,11.90
2018-03-15T11:24:57.548Z,11.80
2018-03-15T11:27:23.936Z,12.00
2018-03-15T11:29:51.018Z,12.30
2018-03-15T11:32:17.356Z,12.30
2018-03-15T11:34:43.733Z,12.60
2018-03-15T11:37:10.098Z,12.60
2018-03-15T11:39:36.461Z,12.60
2018-03-15T11:42:02.890Z,13.00
2018-03-15T11:44:29.272Z,12.20
2018-03-15T11:46:55.798Z,12.80
2018-03-15T11:49:25.496Z,13.30
2018-03-15T11:51:52.568Z,15.00
2018-03-15T11:54:19.692Z,15.40
2018-03-15T11:56:46.052Z,15.40
2018-03-15T11:59:13.142Z,14.50
2018-03-15T12:01:39.556Z,14.50
2018-03-15T12:04:06.595Z,13.60
2018-03-15T12:06:32.920Z,13.50
2018-03-15T12:09:00.029Z,16.40
2018-03-15T12:11:26.357Z,16.40
2018-03-15T12:13:52.691Z,16.80
2018-03-15T12:16:19.159Z,16.40
2018-03-15T12:18:45.477Z,16.80
2018-03-15T12:21:11.854Z,18.40
2018-03-15T12:23:38.943Z,22.20
2018-03-15T12:26:05.268Z,22.00
2018-03-15T12:28:31.781Z,22.30
2018-03-15T12:30:58.163Z,22.50
2018-03-15T12:33:24.478Z,22.10
2018-03-15T12:35:51.248Z,23.00
2018-03-15T12:38:17.571Z,24.00
2018-03-15T12:40:43.948Z,25.90
2018-03-15T12:43:10.306Z,25.80
2018-03-15T12:45:36.636Z,22.90
2018-03-15T12:48:03.043Z,21.20
2018-03-15T12:50:29.443Z,18.40
2018-03-15T12:52:55.729Z,19.10
2018-03-15T12:55:22.137Z,21.20
2018-03-15T12:57:48.475Z,22.40
2018-03-15T13:00:14.798Z,24.20
2018-03-15T13:02:41.135Z,22.70
2018-03-15T13:05:07.523Z,22.80
2018-03-15T13:07:33.891Z,24.60
2018-03-15T13:10:00.237Z,24.30
2018-03-15T13:12:26.593Z,23.20
2018-03-15T13:14:52.957Z,24.30
2018-03-15T13:17:19.332Z,26.70
2018-03-15T13:19:45.687Z,26.40
2018-03-15T13:22:12.027Z,26.50
2018-03-15T13:24:38.370Z,26.50
2018-03-15T13:27:04.711Z,26.20
2018-03-15T13:29:31.076Z,24.90
2018-03-15T13:31:57.424Z,23.10
2018-03-15T13:34:23.775Z,22.30
2018-03-15T13:36:50.174Z,21.50
2018-03-15T13:39:16.532Z,21.40
2018-03-15T13:41:42.847Z,21.90
2018-03-15T13:44:09.165Z,22.30
2018-03-15T13:46:36.210Z,19.40
2018-03-15T13:49:02.525Z,19.30
2018-03-15T13:51:29.560Z,20.00
2018-03-15T13:53:55.850Z,20.00
2018-03-15T13:56:22.970Z,22.50
2018-03-15T13:58:50.093Z,23.90
2018-03-15T14:01:16.403Z,23.80
2018-03-15T14:03:42.780Z,22.30
2018-03-15T14:06:09.117Z,20.20
2018-03-15T14:08:43.134Z,18.50
2018-03-15T14:11:09.462Z,18.50
2018-03-15T14:13:35.791Z,18.60
2018-03-15T14:16:02.956Z,17.80
2018-03-15T14:18:29.299Z,17.80
2018-03-15T14:20:55.645Z,19.00
2018-03-15T14:23:21.928Z,21.10
2018-03-15T14:25:49.083Z,22.60
2018-03-15T14:28:15.433Z,22.60
2018-03-15T14:30:41.823Z,24.00
2018-03-15T14:33:08.915Z,23.50
2018-03-15T14:35:35.231Z,24.60
2018-03-15T14:38:01.573Z,25.70
2018-03-15T14:40:27.893Z,25.80
2018-03-15T14:42:54.224Z,25.10
2018-03-15T14:45:20.560Z,25.10
2018-03-15T14:47:46.891Z,24.30
2018-03-15T14:50:13.318Z,24.90
2018-03-15T14:52:40.427Z,25.50
2018-03-15T14:55:06.736Z,25.50
2018-03-15T14:57:33.062Z,24.60
2018-03-15T14:59:59.433Z,22.20
2018-03-15T15:02:25.768Z,23.30
2018-03-15T15:04:52.128Z,25.60
2018-03-15T15:07:18.485Z,25.60
2018-03-15T15:09:44.896Z,26.20
2018-03-15T15:12:11.208Z,26.60
2018-03-15T15:14:37.555Z,24.50
2018-03-15T15:17:03.923Z,24.00
2018-03-15T15:19:30.247Z,24.80
2018-03-15T15:21:56.709Z,23.10
2018-03-15T15:24:23.081Z,22.90
2018-03-15T15:26:50.120Z,21.20
2018-03-15T15:29:17.165Z,20.50
2018-03-15T15:31:44.205Z,20.00
2018-03-15T15:34:10.512Z,20.00
2018-03-15T15:36:36.856Z,19.70
2018-03-15T15:39:03.215Z,19.50
2018-03-15T15:41:30.304Z,19.10
2018-03-15T15:43:56.684Z,19.00
2018-03-15T15:46:23.835Z,18.30
2018-03-15T15:48:50.913Z,18.50
2018-03-15T15:51:17.263Z,18.40
2018-03-15T15:53:43.559Z,19.20
2018-03-15T15:56:10.637Z,18.00
2018-03-15T15:58:37.129Z,18.00
2018-03-15T16:01:04.320Z,15.30
2018-03-15T16:03:30.656Z,15.20
2018-03-15T16:05:57.022Z,14.60
2018-03-15T16:08:23.379Z,14.10
2018-03-15T16:10:50.459Z,12.90
2018-03-15T16:13:16.816Z,12.90
2018-03-15T16:15:43.462Z,12.60
2018-03-15T16:18:10.119Z,12.20
2018-03-15T16:20:36.566Z,12.00
2018-03-15T16:23:03.652Z,11.60
2018-03-15T16:25:30.017Z,11.60
2018-03-15T16:27:56.406Z,11.50
2018-03-15T16:30:22.704Z,11.60
2018-03-15T16:32:49.038Z,11.50
2018-03-15T16:35:15.368Z,11.40
2018-03-15T16:37:41.988Z,11.30
2018-03-15T16:40:08.571Z,11.20
2018-03-15T16:42:34.986Z,11.00
2018-03-15T16:45:02.095Z,11.00
2018-03-15T16:47:29.457Z,10.70
2018-03-15T16:49:56.119Z,10.60
2018-03-15T16:52:22.790Z,10.60
2018-03-15T16:54:49.279Z,10.60
2018-03-15T16:57:15.631Z,10.50
2018-03-15T16:59:42.023Z,10.50
2018-03-15T17:02:08.360Z,10.30
2018-03-15T17:04:34.687Z,10.30
2018-03-15T17:07:01.046Z,10.40
2018-03-15T17:09:27.364Z,10.30
2018-03-15T17:11:53.892Z,10.20
2018-03-15T17:14:20.229Z,10.20
2018-03-15T17:16:46.581Z,10.20
2018-03-15T17:19:12.905Z,10.10
2018-03-15T17:21:39.254Z,10.00
2018-03-15T17:24:05.743Z,10.10
2018-03-15T17:26:32.275Z,10.10
2018-03-15T17:28:58.577Z,10.00
2018-03-15T17:31:24.941Z,10.00
2018-03-15T17:33:51.340Z,9.90
2018-03-15T17:36:17.715Z,9.90
2018-03-15T17:38:44.096Z,9.90
2018-03-15T17:41:11.171Z,9.70
2018-03-15T17:43:37.504Z,9.70
2018-03-15T17:46:03.857Z,9.70
2018-03-15T17:48:30.229Z,9.50
2018-03-15T17:50:56.648Z,9.40
2018-03-15T17:53:23.021Z,9.30
2018-03-15T17:55:49.361Z,9.20
2018-03-15T17:58:16.633Z,9.10
2018-03-15T18:00:42.882Z,9.10
2018-03-15T18:03:09.205Z,9.10
2018-03-15T18:05:35.528Z,9.00
2018-03-15T18:08:03.022Z,9.00
2018-03-15T18:10:32.125Z,8.90
2018-03-15T18:12:59.462Z,8.80
2018-03-15T18:15:25.822Z,8.80
2018-03-15T18:17:52.957Z,8.60
2018-03-15T18:20:19.281Z,8.60
2018-03-15T18:22:45.724Z,8.40
2018-03-15T18:25:12.871Z,8.00
2018-03-15T18:27:39.276Z,8.00
2018-03-15T18:30:05.686Z,7.90
2018-03-15T18:32:32.182Z,7.70
2018-03-15T18:34:59.264Z,7.50
2018-03-15T18:37:25.642Z,7.40
2018-03-15T18:39:52.978Z,7.30
2018-03-15T18:42:20.672Z,7.20
2018-03-15T18:44:47.058Z,7.20
2018-03-15T18:47:13.449Z,7.00
2018-03-15T18:49:39.805Z,7.00
2018-03-15T18:52:06.197Z,6.90
2018-03-15T18:54:32.671Z,6.80
2018-03-15T18:56:59.111Z,6.80
2018-03-15T18:59:25.470Z,6.70
2018-03-15T19:01:52.127Z,6.70
2018-03-15T19:04:18.691Z,6.60
2018-03-15T19:06:46.000Z,6.50
2018-03-15T19:09:12.566Z,6.50
2018-03-15T19:11:38.878Z,6.50
2018-03-15T19:14:05.310Z,6.40
2018-03-15T19:16:31.730Z,6.40
2018-03-15T19:18:58.182Z,6.40
2018-03-15T19:21:24.602Z,6.30
2018-03-15T19:23:50.970Z,6.30
2018-03-15T19:26:18.147Z,6.20
2018-03-15T19:28:44.469Z,6.20
2018-03-15T19:31:25.962Z,6.10
2018-03-15T19:33:52.299Z,6.10
2018-03-15T19:36:18.626Z,6.10
2018-03-15T19:38:45.048Z,6.10
2018-03-15T19:41:11.352Z,6.00
2018-03-15T19:43:37.860Z,6.00
2018-03-15T19:46:04.919Z,5.90
2018-03-15T19:48:31.252Z,5.90
2018-03-15T19:50:57.616Z,5.90
2018-03-15T19:53:24.878Z,5.90
2018-03-15T19:55:52.056Z,5.90
2018-03-15T19:58:18.454Z,5.90
2018-03-15T20:00:45.560Z,5.80
2018-03-15T20:03:11.988Z,5.80
2018-03-15T20:05:38.341Z,5.80
2018-03-15T20:08:04.746Z,5.70
2018-03-15T20:10:31.199Z,5.70
2018-03-15T20:12:57.663Z,5.70
2018-03-15T20:15:24.003Z,5.60
2018-03-15T20:17:51.223Z,5.60
2018-03-15T20:20:17.585Z,5.60
2018-03-15T20:22:50.922Z,5.60
2018-03-15T20:25:21.205Z,5.60
2018-03-15T20:27:54.454Z,5.60
2018-03-15T20:30:20.826Z,5.60
2018-03-15T20:32:54.149Z,5.60
2018-03-15T20:35:21.555Z,5.50
2018-03-15T20:37:47.918Z,5.60
2018-03-15T20:40:21.313Z,5.60
2018-03-15T20:42:53.349Z,5.60
2018-03-15T20:48:28.264Z,5.50
2018-03-15T20:50:54.612Z,5.50
2018-03-15T20:53:23.313Z,5.50
2018-03-15T20:55:49.657Z,5.50
2018-03-15T20:58:16.073Z,5.50
2018-03-15T21:00:42.671Z,5.50
2018-03-15T21:03:09.025Z,5.50
2018-03-15T21:05:35.517Z,5.50
2018-03-15T21:08:02.730Z,5.40
2018-03-15T21:10:29.133Z,5.40
2018-03-15T21:12:55.492Z,5.30
2018-03-15T21:15:21.884Z,5.30
2018-03-15T21:17:48.262Z,5.30
2018-03-15T21:20:14.562Z,5.30
2018-03-15T21:22:40.930Z,5.30
2018-03-15T21:25:07.252Z,5.30
2018-03-15T21:27:33.606Z,5.30
2018-03-15T21:30:00.936Z,5.30
2018-03-15T21:32:27.388Z,5.30
2018-03-15T21:34:53.954Z,5.20
2018-03-15T21:37:21.031Z,5.20
2018-03-15T21:39:47.405Z,5.20
2018-03-15T21:42:13.784Z,5.20
2018-03-15T21:44:40.294Z,5.20
2018-03-15T21:47:06.565Z,5.20
2018-03-15T21:49:32.915Z,5.20
2018-03-15T21:51:59.209Z,5.10
2018-03-15T21:54:25.566Z,5.10
2018-03-15T21:56:51.871Z,5.10
2018-03-15T21:59:18.295Z,5.10
2018-03-15T22:01:44.640Z,5.10
2018-03-15T22:04:10.975Z,5.00
2018-03-15T22:06:37.395Z,5.10
2018-03-15T22:09:03.793Z,5.10
2018-03-15T22:11:30.241Z,5.00
2018-03-15T22:13:56.722Z,5.00
2018-03-15T22:16:23.071Z,5.00
2018-03-15T22:18:49.382Z,5.00
2018-03-15T22:21:15.788Z,5.00
2018-03-15T22:23:42.813Z,5.10
2018-03-15T22:26:09.274Z,5.10
2018-03-15T22:28:35.605Z,5.00
2018-03-15T22:31:02.697Z,5.00
2018-03-15T22:33:29.091Z,5.00
2018-03-15T22:35:55.410Z,5.00
2018-03-15T22:38:22.434Z,5.00
2018-03-15T22:40:48.868Z,5.00
2018-03-15T22:43:15.189Z,4.90
2018-03-15T22:45:42.256Z,4.90
2018-03-15T22:48:09.287Z,4.90
2018-03-15T22:50:35.668Z,4.90
2018-03-15T22:53:01.952Z,4.90
2018-03-15T22:55:28.248Z,4.90
2018-03-15T22:57:54.586Z,4.90
2018-03-15T23:00:20.992Z,4.90
2018-03-15T23:02:47.360Z,4.90
2018-03-15T23:05:13.672Z,4.90
2018-03-15T23:07:39.984Z,4.80
2018-03-15T23:10:06.606Z,4.80
2018-03-15T23:12:33.635Z,4.80
2018-03-15T23:15:00.159Z,4.80
2018-03-15T23:17:26.587Z,4.80
2018-03-15T23:19:52.929Z,4.80
2018-03-15T23:22:19.447Z,4.80
2018-03-15T23:24:45.862Z,4.70
2018-03-15T23:27:12.195Z,4.70
2018-03-15T23:29:38.456Z,4.70
2018-03-15T23:32:04.905Z,4.70
2018-03-15T23:34:31.265Z,4.70
2018-03-15T23:36:57.831Z,4.80
2018-03-15T23:39:24.481Z,4.90
2018-03-15T23:41:50.936Z,5.00
2018-03-15T23:44:17.247Z,5.10
2018-03-15T23:46:44.352Z,5.30
2018-03-15T23:49:10.785Z,5.30
2018-03-15T23:51:37.120Z,5.40
2018-03-15T23:54:03.465Z,5.40
2018-03-15T23:56:29.785Z,5.50
2018-03-15T23:58:56.199Z,5.50
